Time;durP1;ratioP1;P1;durP2;ratioP2;P2;SDS_P1;SDS_P2;PMS_P1;PMS_P2;Temp;Humidity;BMP_temperature;BMP_pressure;BME280_temperature;BME280_humidity;BME280_pressure;Samples;Min_cycle;Max_cycle;Signal;HPM_P1;HPM_P2
2022/04/10 00:00:24;;;;;;;0.00;0.00;;;;;;;;;;1742102;28;20199;-58
2022/04/10 00:01:15;;;;;;;0.10;0.10;;;;;;;;;;1742416;28;20198;-59
2022/04/10 00:02:07;;;;;;;0.10;0.10;;;;;;;;;;1746379;28;20255;-58
2022/04/10 00:02:58;;;;;;;0.10;0.10;;;;;;;;;;1743680;28;20340;-56
2022/04/10 00:03:51;;;;;;;0.10;0.10;;;;;;;;;;1742461;28;20249;-57
2022/04/10 00:04:42;;;;;;;0.10;0.10;;;;;;;;;;1745636;28;20244;-58
2022/04/10 00:05:33;;;;;;;0.20;0.20;;;;;;;;;;1743071;28;20240;-58
2022/04/10 00:06:25;;;;;;;0.17;0.17;;;;;;;;;;1745385;28;20221;-57
2022/04/10 00:07:17;;;;;;;0.10;0.10;;;;;;;;;;1746497;28;20213;-57
2022/04/10 00:08:09;;;;;;;0.10;0.10;;;;;;;;;;1745810;28;20225;-58
2022/04/10 00:09:00;;;;;;;0.10;0.10;;;;;;;;;;1744632;28;20217;-58
2022/04/10 00:09:52;;;;;;;0.10;0.10;;;;;;;;;;1750214;28;20197;-58
2022/04/10 00:10:43;;;;;;;0.20;0.20;;;;;;;;;;1745106;28;20241;-58
2022/04/10 00:11:36;;;;;;;0.10;0.10;;;;;;;;;;1752656;28;20194;-57
2022/04/10 00:12:27;;;;;;;0.10;0.10;;;;;;;;;;1752939;28;20209;-57
2022/04/10 00:13:24;;;;;;;0.03;0.03;;;;;;;;;;1752002;28;20199;-58
2022/04/10 00:14:17;;;;;;;0.10;0.10;;;;;;;;;;1751829;28;20202;-58
2022/04/10 00:15:11;;;;;;;0.20;0.20;;;;;;;;;;1750146;28;20209;-57
2022/04/10 00:16:02;;;;;;;0.20;0.20;;;;;;;;;;1750441;28;20942;-57
2022/04/10 00:16:56;;;;;;;0.10;0.10;;;;;;;;;;1751708;28;20216;-56
2022/04/10 00:17:47;;;;;;;0.10;0.10;;;;;;;;;;1753488;28;20213;-57
2022/04/10 00:18:40;;;;;;;0.08;0.08;;;;;;;;;;1751593;28;20598;-57
2022/04/10 00:19:31;;;;;;;0.17;0.17;;;;;;;;;;1752260;28;20252;-57
2022/04/10 00:20:23;;;;;;;0.20;0.20;;;;;;;;;;1748383;28;20221;-58
2022/04/10 00:21:14;;;;;;;0.10;0.10;;;;;;;;;;1751938;28;20205;-58
2022/04/10 00:22:07;;;;;;;0.15;0.15;;;;;;;;;;1748812;28;20288;-58
2022/04/10 00:22:58;;;;;;;0.10;0.10;;;;;;;;;;1752122;28;20201;-58
2022/04/10 00:23:50;;;;;;;0.17;0.17;;;;;;;;;;1749786;28;20723;-57
2022/04/10 00:24:41;;;;;;;0.10;0.10;;;;;;;;;;1751625;28;20198;-57
2022/04/10 00:25:33;;;;;;;0.10;0.10;;;;;;;;;;1745918;28;20240;-58
2022/04/10 00:26:25;;;;;;;0.13;0.13;;;;;;;;;;1750472;28;20206;-58
2022/04/10 00:27:17;;;;;;;0.10;0.10;;;;;;;;;;1750482;28;20202;-58
2022/04/10 00:28:08;;;;;;;0.03;0.03;;;;;;;;;;1749702;28;20936;-58
2022/04/10 00:29:00;;;;;;;0.20;0.20;;;;;;;;;;1746876;28;20289;-57
2022/04/10 00:29:53;;;;;;;0.17;0.17;;;;;;;;;;1748504;28;20209;-58
2022/04/10 00:30:45;;;;;;;0.20;0.20;;;;;;;;;;1746707;28;20240;-57
2022/04/10 00:31:36;;;;;;;0.10;0.10;;;;;;;;;;1745024;28;20206;-59
2022/04/10 00:32:29;;;;;;;0.32;0.32;;;;;;;;;;1744987;28;20198;-57
2022/04/10 00:33:20;;;;;;;0.10;0.10;;;;;;;;;;1751850;28;20262;-56
2022/04/10 00:34:13;;;;;;;0.17;0.17;;;;;;;;;;1750171;28;20198;-58
2022/04/10 00:35:05;;;;;;;0.05;0.05;;;;;;;;;;1749072;28;20209;-58
2022/04/10 00:35:57;;;;;;;0.10;0.10;;;;;;;;;;1743615;28;20734;-60
2022/04/10 00:36:48;;;;;;;0.10;0.10;;;;;;;;;;1749853;28;20249;-61
2022/04/10 00:37:41;;;;;;;0.10;0.10;;;;;;;;;;1744205;28;20194;-61
2022/04/10 00:38:32;;;;;;;0.20;0.20;;;;;;;;;;1751673;28;20201;-60
2022/04/10 00:39:24;;;;;;;0.10;0.10;;;;;;;;;;1751999;28;20332;-59
2022/04/10 00:40:16;;;;;;;0.08;0.08;;;;;;;;;;1750685;28;20202;-59
2022/04/10 00:41:08;;;;;;;0.15;0.15;;;;;;;;;;1745671;28;20257;-58
2022/04/10 00:41:59;;;;;;;0.00;0.00;;;;;;;;;;1747616;28;20214;-59
2022/04/10 00:42:52;;;;;;;0.10;0.10;;;;;;;;;;1746832;28;20226;-59
2022/04/10 00:43:58;;;;;;;0.10;0.10;;;;;;;;;;1750946;28;20205;-59
2022/04/10 00:44:50;;;;;;;0.15;0.15;;;;;;;;;;1750201;28;20233;-58
2022/04/10 00:45:43;;;;;;;0.13;0.13;;;;;;;;;;1739873;28;20335;-59
2022/04/10 00:46:35;;;;;;;0.20;0.20;;;;;;;;;;1743817;28;20203;-58
2022/04/10 00:47:26;;;;;;;0.08;0.08;;;;;;;;;;1740011;28;20206;-59
2022/04/10 00:48:18;;;;;;;0.10;0.10;;;;;;;;;;1744638;28;20252;-59
2022/04/10 00:49:10;;;;;;;0.00;0.00;;;;;;;;;;1743588;28;20210;-59
2022/04/10 00:50:03;;;;;;;0.10;0.10;;;;;;;;;;1738540;28;20688;-59
2022/04/10 00:52:07;;;;;;;0.28;0.28;;;;;;;;;;1749662;28;20253;-60
2022/04/10 00:52:59;;;;;;;0.00;0.00;;;;;;;;;;1751610;28;20254;-59
2022/04/10 00:53:51;;;;;;;0.10;0.10;;;;;;;;;;1746550;28;20265;-59
2022/04/10 00:54:42;;;;;;;0.10;0.10;;;;;;;;;;1745982;28;20240;-59
2022/04/10 00:55:35;;;;;;;0.10;0.10;;;;;;;;;;1740784;28;20205;-58
2022/04/10 00:56:26;;;;;;;0.00;0.00;;;;;;;;;;1746090;28;20198;-58
2022/04/10 00:57:19;;;;;;;0.10;0.10;;;;;;;;;;1744272;28;20327;-59
2022/04/10 00:58:10;;;;;;;0.00;0.00;;;;;;;;;;1745041;28;20282;-59
2022/04/10 00:59:02;;;;;;;0.10;0.10;;;;;;;;;;1743388;28;20624;-59
2022/04/10 00:59:54;;;;;;;0.03;0.03;;;;;;;;;;1744092;28;20237;-59
2022/04/10 01:00:47;;;;;;;0.20;0.20;;;;;;;;;;1742079;28;20361;-58
2022/04/10 01:01:40;;;;;;;0.10;0.10;;;;;;;;;;1746638;28;20206;-59
2022/04/10 01:02:32;;;;;;;0.00;0.00;;;;;;;;;;1750121;28;20199;-59
2022/04/10 01:03:23;;;;;;;0.10;0.10;;;;;;;;;;1752516;28;20221;-59
2022/04/10 01:04:16;;;;;;;0.10;0.10;;;;;;;;;;1750876;28;20205;-58
2022/04/10 01:05:07;;;;;;;0.10;0.10;;;;;;;;;;1746024;28;20251;-59
2022/04/10 01:06:00;;;;;;;0.10;0.10;;;;;;;;;;1748354;28;20246;-59
2022/04/10 01:06:52;;;;;;;0.10;0.10;;;;;;;;;;1751571;28;20687;-59
2022/04/10 01:07:44;;;;;;;0.20;0.20;;;;;;;;;;1748223;28;20205;-59
2022/04/10 01:08:36;;;;;;;0.00;0.00;;;;;;;;;;1747106;28;20203;-59
2022/04/10 01:09:28;;;;;;;0.15;0.15;;;;;;;;;;1750029;28;20285;-59
2022/04/10 01:10:20;;;;;;;0.10;0.10;;;;;;;;;;1749402;28;20209;-59
2022/04/10 01:11:12;;;;;;;0.08;0.08;;;;;;;;;;1751283;28;20652;-58
2022/04/10 01:12:04;;;;;;;0.15;0.15;;;;;;;;;;1750338;28;20210;-59
2022/04/10 01:12:56;;;;;;;0.28;0.28;;;;;;;;;;1747609;28;20200;-59
2022/04/10 01:13:48;;;;;;;0.20;0.20;;;;;;;;;;1748118;28;20719;-59
2022/04/10 01:14:40;;;;;;;0.10;0.10;;;;;;;;;;1753205;28;20204;-58
2022/04/10 01:15:32;;;;;;;0.10;0.10;;;;;;;;;;1744436;28;20231;-59
2022/04/10 01:16:25;;;;;;;0.10;0.10;;;;;;;;;;1739785;28;20222;-59
2022/04/10 01:17:17;;;;;;;0.10;0.10;;;;;;;;;;1740886;28;20506;-59
2022/04/10 01:18:11;;;;;;;0.20;0.20;;;;;;;;;;1744194;28;20210;-59
2022/04/10 01:19:03;;;;;;;0.00;0.00;;;;;;;;;;1742131;28;20289;-58
2022/04/10 01:19:55;;;;;;;0.10;0.10;;;;;;;;;;1738884;28;20635;-59
2022/04/10 01:20:47;;;;;;;0.10;0.10;;;;;;;;;;1739138;28;20249;-59
2022/04/10 01:21:42;;;;;;;0.10;0.10;;;;;;;;;;1739548;28;20658;-58
2022/04/10 01:22:35;;;;;;;0.10;0.10;;;;;;;;;;1742441;28;20253;-58
2022/04/10 01:23:27;;;;;;;0.08;0.08;;;;;;;;;;1738955;28;20231;-59
2022/04/10 01:24:19;;;;;;;0.10;0.10;;;;;;;;;;1742057;28;20206;-58
2022/04/10 01:25:11;;;;;;;0.10;0.10;;;;;;;;;;1743091;28;20213;-58
2022/04/10 01:26:03;;;;;;;0.00;0.00;;;;;;;;;;1740758;28;20273;-59
2022/04/10 01:26:55;;;;;;;0.10;0.10;;;;;;;;;;1739784;28;20198;-58
2022/04/10 01:27:47;;;;;;;0.10;0.10;;;;;;;;;;1742896;28;20584;-59
2022/04/10 01:28:54;;;;;;;0.20;0.20;;;;;;;;;;1744174;28;20669;-58
2022/04/10 01:29:46;;;;;;;0.00;0.00;;;;;;;;;;1739016;28;20628;-58
2022/04/10 01:30:37;;;;;;;0.10;0.10;;;;;;;;;;1737423;28;20203;-58
2022/04/10 01:31:30;;;;;;;0.10;0.10;;;;;;;;;;1740490;28;20260;-59
2022/04/10 01:32:21;;;;;;;0.20;0.20;;;;;;;;;;1741204;28;20258;-58
2022/04/10 01:33:13;;;;;;;0.20;0.20;;;;;;;;;;1747248;28;20205;-59
2022/04/10 01:34:05;;;;;;;0.10;0.10;;;;;;;;;;1744012;28;20260;-59
2022/04/10 01:34:59;;;;;;;0.13;0.13;;;;;;;;;;1745360;28;20229;-58
2022/04/10 01:35:51;;;;;;;0.10;0.10;;;;;;;;;;1740532;28;20242;-59
2022/04/10 01:36:43;;;;;;;0.20;0.20;;;;;;;;;;1739750;28;20261;-59
2022/04/10 01:37:36;;;;;;;0.13;0.13;;;;;;;;;;1740792;28;20211;-58
2022/04/10 01:38:29;;;;;;;0.10;0.10;;;;;;;;;;1739026;28;20833;-59
2022/04/10 01:39:22;;;;;;;0.10;0.10;;;;;;;;;;1740954;28;20209;-59
2022/04/10 01:40:15;;;;;;;0.03;0.03;;;;;;;;;;1740092;28;20684;-59
2022/04/10 01:41:06;;;;;;;0.00;0.00;;;;;;;;;;1739496;28;20245;-59
2022/04/10 01:41:58;;;;;;;0.10;0.10;;;;;;;;;;1739840;28;20673;-57
2022/04/10 01:42:49;;;;;;;0.10;0.10;;;;;;;;;;1743368;28;20210;-58
2022/04/10 01:43:45;;;;;;;0.20;0.20;;;;;;;;;;1743053;28;20222;-58
2022/04/10 01:44:40;;;;;;;0.10;0.10;;;;;;;;;;1739612;28;20231;-59
2022/04/10 01:45:32;;;;;;;0.10;0.10;;;;;;;;;;1737176;28;20521;-59
2022/04/10 01:46:24;;;;;;;0.10;0.10;;;;;;;;;;1744059;28;20226;-58
2022/04/10 01:47:16;;;;;;;0.20;0.20;;;;;;;;;;1743100;28;20269;-59
2022/04/10 01:48:07;;;;;;;0.20;0.20;;;;;;;;;;1741006;28;20666;-59
2022/04/10 01:49:00;;;;;;;0.10;0.10;;;;;;;;;;1742029;28;20202;-59
2022/04/10 01:49:51;;;;;;;0.30;0.30;;;;;;;;;;1738917;28;20207;-59
2022/04/10 01:50:43;;;;;;;0.20;0.20;;;;;;;;;;1737349;28;20605;-59
2022/04/10 01:51:35;;;;;;;0.10;0.10;;;;;;;;;;1746023;28;20199;-59
2022/04/10 01:52:27;;;;;;;0.00;0.00;;;;;;;;;;1741851;28;20249;-59
2022/04/10 01:53:19;;;;;;;0.10;0.10;;;;;;;;;;1745440;28;20668;-59
2022/04/10 01:54:11;;;;;;;0.10;0.10;;;;;;;;;;1741469;28;20712;-61
2022/04/10 01:55:03;;;;;;;0.03;0.03;;;;;;;;;;1739624;28;20210;-61
2022/04/10 01:55:55;;;;;;;0.00;0.00;;;;;;;;;;1739120;28;20263;-61
2022/04/10 01:56:46;;;;;;;0.25;0.25;;;;;;;;;;1738516;28;20210;-58
2022/04/10 01:57:38;;;;;;;0.10;0.10;;;;;;;;;;1741131;28;20597;-59
2022/04/10 01:58:30;;;;;;;0.10;0.10;;;;;;;;;;1739960;28;20680;-59
2022/04/10 01:59:22;;;;;;;0.00;0.00;;;;;;;;;;1742370;28;20259;-59
2022/04/10 02:00:13;;;;;;;0.10;0.10;;;;;;;;;;1738158;28;20207;-58
2022/04/10 02:01:06;;;;;;;0.10;0.10;;;;;;;;;;1739984;28;20230;-59
2022/04/10 02:01:57;;;;;;;0.00;0.00;;;;;;;;;;1740510;28;20226;-59
2022/04/10 02:02:49;;;;;;;0.00;0.00;;;;;;;;;;1741844;28;20661;-59
2022/04/10 02:03:41;;;;;;;0.10;0.10;;;;;;;;;;1738693;28;20581;-59
2022/04/10 02:04:33;;;;;;;0.10;0.10;;;;;;;;;;1741577;28;20630;-59
2022/04/10 02:05:25;;;;;;;0.20;0.20;;;;;;;;;;1737611;28;20207;-58
2022/04/10 02:06:17;;;;;;;0.17;0.17;;;;;;;;;;1742558;28;20249;-58
2022/04/10 02:07:08;;;;;;;0.10;0.10;;;;;;;;;;1740652;28;20257;-58
2022/04/10 02:08:01;;;;;;;0.00;0.00;;;;;;;;;;1740840;28;20207;-59
2022/04/10 02:08:53;;;;;;;0.10;0.10;;;;;;;;;;1741483;28;20210;-59
2022/04/10 02:09:45;;;;;;;0.20;0.20;;;;;;;;;;1743940;28;20917;-58
2022/04/10 02:10:37;;;;;;;0.10;0.10;;;;;;;;;;1739342;28;20207;-58
2022/04/10 02:11:29;;;;;;;0.10;0.10;;;;;;;;;;1739235;28;20234;-58
2022/04/10 02:12:20;;;;;;;0.00;0.00;;;;;;;;;;1742241;28;20206;-58
2022/04/10 02:13:12;;;;;;;0.10;0.10;;;;;;;;;;1740791;28;20899;-58
2022/04/10 02:14:03;;;;;;;0.10;0.10;;;;;;;;;;1740609;28;20230;-59
2022/04/10 02:14:56;;;;;;;0.20;0.20;;;;;;;;;;1740183;28;20214;-59
2022/04/10 02:15:47;;;;;;;0.28;0.28;;;;;;;;;;1744116;28;20249;-59
2022/04/10 02:16:39;;;;;;;0.10;0.10;;;;;;;;;;1752320;28;20228;-59
2022/04/10 02:17:30;;;;;;;0.00;0.00;;;;;;;;;;1749023;28;20604;-58
2022/04/10 02:18:22;;;;;;;0.10;0.10;;;;;;;;;;1746012;28;20202;-58
2022/04/10 02:19:13;;;;;;;0.20;0.20;;;;;;;;;;1751518;28;20220;-59
2022/04/10 02:20:06;;;;;;;0.10;0.10;;;;;;;;;;1746020;28;20206;-58
2022/04/10 02:20:57;;;;;;;0.20;0.20;;;;;;;;;;1747305;28;20244;-59
2022/04/10 02:21:50;;;;;;;0.10;0.10;;;;;;;;;;1751389;28;20588;-58
2022/04/10 02:22:41;;;;;;;0.17;0.17;;;;;;;;;;1748924;28;20197;-59
2022/04/10 02:23:33;;;;;;;0.20;0.20;;;;;;;;;;1750946;28;20201;-59
2022/04/10 02:24:26;;;;;;;0.13;0.13;;;;;;;;;;1748662;28;20202;-58
2022/04/10 02:25:18;;;;;;;0.20;0.20;;;;;;;;;;1746963;28;20203;-58
2022/04/10 02:26:10;;;;;;;0.10;0.10;;;;;;;;;;1747008;28;20275;-59
2022/04/10 02:27:02;;;;;;;0.10;0.10;;;;;;;;;;1750595;28;20209;-59
2022/04/10 02:27:53;;;;;;;0.20;0.20;;;;;;;;;;1752660;28;20221;-59
2022/04/10 02:28:45;;;;;;;0.15;0.15;;;;;;;;;;1748734;28;21580;-58
2022/04/10 02:29:37;;;;;;;0.00;0.00;;;;;;;;;;1750643;28;20287;-59
2022/04/10 02:30:28;;;;;;;0.10;0.10;;;;;;;;;;1745677;28;20573;-59
2022/04/10 02:31:20;;;;;;;0.10;0.10;;;;;;;;;;1751247;28;20573;-59
2022/04/10 02:32:11;;;;;;;0.00;0.00;;;;;;;;;;1751664;28;20194;-59
2022/04/10 02:33:04;;;;;;;0.20;0.20;;;;;;;;;;1756895;28;20193;-58
2022/04/10 02:33:55;;;;;;;0.00;0.00;;;;;;;;;;1753135;28;20617;-59
2022/04/10 02:34:47;;;;;;;0.10;0.10;;;;;;;;;;1756175;28;20216;-59
2022/04/10 02:35:40;;;;;;;0.32;0.32;;;;;;;;;;1749424;28;20464;-59
2022/04/10 02:36:32;;;;;;;0.20;0.20;;;;;;;;;;1745543;28;20194;-59
2022/04/10 02:37:23;;;;;;;0.10;0.10;;;;;;;;;;1748017;28;20206;-58
2022/04/10 02:38:16;;;;;;;0.10;0.10;;;;;;;;;;1752887;28;20206;-60
2022/04/10 02:39:08;;;;;;;0.00;0.00;;;;;;;;;;1748639;28;20669;-58
2022/04/10 02:40:01;;;;;;;0.00;0.00;;;;;;;;;;1752211;28;20250;-58
2022/04/10 02:40:52;;;;;;;0.00;0.00;;;;;;;;;;1746060;28;20627;-58
2022/04/10 02:41:44;;;;;;;0.10;0.10;;;;;;;;;;1745332;28;20260;-58
2022/04/10 02:42:36;;;;;;;0.20;0.20;;;;;;;;;;1749421;28;20202;-58
2022/04/10 02:43:28;;;;;;;0.10;0.10;;;;;;;;;;1750810;28;20305;-59
2022/04/10 02:44:20;;;;;;;0.05;0.05;;;;;;;;;;1751681;28;20633;-59
2022/04/10 02:45:13;;;;;;;0.10;0.10;;;;;;;;;;1751584;28;20678;-59
2022/04/10 02:46:04;;;;;;;0.20;0.20;;;;;;;;;;1745682;28;20249;-59
2022/04/10 02:46:56;;;;;;;0.10;0.10;;;;;;;;;;1746244;28;20202;-58
2022/04/10 02:47:47;;;;;;;0.10;0.10;;;;;;;;;;1746773;28;20262;-59
2022/04/10 02:48:39;;;;;;;0.22;0.22;;;;;;;;;;1745941;28;20194;-58
2022/04/10 02:49:31;;;;;;;0.10;0.10;;;;;;;;;;1747270;28;20198;-60
2022/04/10 02:50:24;;;;;;;0.15;0.15;;;;;;;;;;1746120;28;20205;-60
2022/04/10 02:51:15;;;;;;;0.10;0.10;;;;;;;;;;1748904;28;20240;-61
2022/04/10 02:52:08;;;;;;;0.03;0.03;;;;;;;;;;1750082;28;20206;-58
2022/04/10 02:52:59;;;;;;;0.10;0.10;;;;;;;;;;1752530;28;20212;-59
2022/04/10 02:53:51;;;;;;;0.08;0.08;;;;;;;;;;1749727;28;20296;-58
2022/04/10 02:54:42;;;;;;;0.10;0.10;;;;;;;;;;1746821;28;20202;-59
2022/04/10 02:55:36;;;;;;;0.05;0.05;;;;;;;;;;1747219;28;20263;-58
2022/04/10 02:56:27;;;;;;;0.10;0.10;;;;;;;;;;1745965;28;20725;-59
2022/04/10 02:57:19;;;;;;;0.10;0.10;;;;;;;;;;1744825;28;20198;-59
2022/04/10 02:58:11;;;;;;;0.20;0.20;;;;;;;;;;1745142;28;20593;-59
2022/04/10 02:59:03;;;;;;;0.10;0.10;;;;;;;;;;1751036;28;20202;-59
2022/04/10 02:59:54;;;;;;;0.10;0.10;;;;;;;;;;1751764;28;20568;-59
2022/04/10 03:00:47;;;;;;;0.10;0.10;;;;;;;;;;1747330;28;20727;-59
2022/04/10 03:01:39;;;;;;;0.10;0.10;;;;;;;;;;1745415;28;20656;-59
2022/04/10 03:02:31;;;;;;;0.15;0.15;;;;;;;;;;1751560;28;20293;-59
2022/04/10 03:03:22;;;;;;;0.25;0.25;;;;;;;;;;1752358;28;20741;-59
2022/04/10 03:04:15;;;;;;;0.10;0.10;;;;;;;;;;1751841;28;20340;-58
2022/04/10 03:05:06;;;;;;;0.00;0.00;;;;;;;;;;1751973;28;20209;-58
2022/04/10 03:05:58;;;;;;;0.10;0.10;;;;;;;;;;1749159;28;20595;-56
2022/04/10 03:06:52;;;;;;;0.00;0.00;;;;;;;;;;1751500;28;20220;-59
2022/04/10 03:07:44;;;;;;;0.10;0.10;;;;;;;;;;1748253;28;20201;-59
2022/04/10 03:08:35;;;;;;;0.10;0.10;;;;;;;;;;1746630;28;20631;-58
2022/04/10 03:09:27;;;;;;;0.00;0.00;;;;;;;;;;1753668;28;20212;-57
2022/04/10 03:10:19;;;;;;;0.20;0.20;;;;;;;;;;1751398;28;20342;-58
2022/04/10 03:11:12;;;;;;;0.20;0.20;;;;;;;;;;1748176;28;20234;-58
2022/04/10 03:12:04;;;;;;;0.00;0.00;;;;;;;;;;1751993;28;20225;-58
2022/04/10 03:12:56;;;;;;;0.20;0.20;;;;;;;;;;1752096;28;20259;-58
2022/04/10 03:13:48;;;;;;;0.00;0.00;;;;;;;;;;1750762;28;20414;-58
2022/04/10 03:14:40;;;;;;;0.10;0.10;;;;;;;;;;1746728;28;20475;-58
2022/04/10 03:15:31;;;;;;;0.32;0.32;;;;;;;;;;1742925;28;20238;-60
2022/04/10 03:16:23;;;;;;;0.13;0.13;;;;;;;;;;1752118;28;20224;-58
2022/04/10 03:17:15;;;;;;;0.10;0.10;;;;;;;;;;1753437;28;20660;-57
2022/04/10 03:18:07;;;;;;;0.10;0.10;;;;;;;;;;1752330;28;20275;-59
2022/04/10 03:18:58;;;;;;;0.10;0.10;;;;;;;;;;1753180;28;20505;-59
2022/04/10 03:19:50;;;;;;;0.08;0.08;;;;;;;;;;1751600;28;20545;-58
2022/04/10 03:20:42;;;;;;;0.10;0.10;;;;;;;;;;1748813;28;20234;-58
2022/04/10 03:21:34;;;;;;;0.10;0.10;;;;;;;;;;1745462;28;20259;-57
2022/04/10 03:22:25;;;;;;;0.10;0.10;;;;;;;;;;1745353;28;20229;-58
2022/04/10 03:23:17;;;;;;;0.13;0.13;;;;;;;;;;1745261;28;20202;-57
2022/04/10 03:24:09;;;;;;;0.00;0.00;;;;;;;;;;1751435;28;20583;-56
2022/04/10 03:25:01;;;;;;;0.10;0.10;;;;;;;;;;1752371;28;20209;-57
2022/04/10 03:25:52;;;;;;;0.00;0.00;;;;;;;;;;1746545;28;20608;-60
2022/04/10 03:26:46;;;;;;;0.20;0.20;;;;;;;;;;1751682;28;20194;-60
2022/04/10 03:27:37;;;;;;;0.20;0.20;;;;;;;;;;1750881;28;20213;-58
2022/04/10 03:28:29;;;;;;;0.05;0.05;;;;;;;;;;1745615;28;20198;-58
2022/04/10 03:29:20;;;;;;;0.10;0.10;;;;;;;;;;1749358;28;20691;-57
2022/04/10 03:30:13;;;;;;;0.20;0.20;;;;;;;;;;1744846;28;20263;-61
2022/04/10 03:31:04;;;;;;;0.20;0.20;;;;;;;;;;1750114;28;20221;-58
2022/04/10 03:31:57;;;;;;;0.20;0.20;;;;;;;;;;1752411;28;20210;-58
2022/04/10 03:32:48;;;;;;;0.20;0.20;;;;;;;;;;1752321;28;20197;-59
2022/04/10 03:33:40;;;;;;;0.28;0.28;;;;;;;;;;1752442;28;20658;-59
2022/04/10 03:34:31;;;;;;;0.17;0.17;;;;;;;;;;1750884;28;20202;-59
2022/04/10 03:35:24;;;;;;;0.00;0.00;;;;;;;;;;1752626;28;20313;-58
2022/04/10 03:36:16;;;;;;;0.10;0.10;;;;;;;;;;1752483;28;20229;-57
2022/04/10 03:37:07;;;;;;;0.20;0.20;;;;;;;;;;1751654;28;20208;-59
2022/04/10 03:37:59;;;;;;;0.10;0.10;;;;;;;;;;1752491;28;20205;-57
2022/04/10 03:38:51;;;;;;;0.10;0.10;;;;;;;;;;1751845;28;20548;-56
2022/04/10 03:39:43;;;;;;;0.15;0.15;;;;;;;;;;1746571;28;20202;-58
2022/04/10 03:40:34;;;;;;;0.20;0.20;;;;;;;;;;1745194;28;20230;-59
2022/04/10 03:41:26;;;;;;;0.10;0.10;;;;;;;;;;1752691;28;20702;-57
2022/04/10 03:42:20;;;;;;;0.15;0.15;;;;;;;;;;1752612;28;20209;-59
2022/04/10 03:43:12;;;;;;;0.20;0.20;;;;;;;;;;1749958;28;20640;-59
2022/04/10 03:44:04;;;;;;;0.13;0.13;;;;;;;;;;1750735;28;20204;-59
2022/04/10 03:44:56;;;;;;;0.00;0.00;;;;;;;;;;1751246;28;20683;-59
2022/04/10 03:45:47;;;;;;;0.10;0.10;;;;;;;;;;1749348;28;20244;-59
2022/04/10 03:46:39;;;;;;;0.20;0.20;;;;;;;;;;1752526;28;20197;-59
2022/04/10 03:47:31;;;;;;;0.10;0.10;;;;;;;;;;1752124;28;20240;-59
2022/04/10 03:48:23;;;;;;;0.15;0.15;;;;;;;;;;1752720;28;20718;-58
2022/04/10 03:49:14;;;;;;;0.20;0.20;;;;;;;;;;1753335;28;20608;-59
2022/04/10 03:50:06;;;;;;;0.10;0.10;;;;;;;;;;1752076;28;20205;-59
2022/04/10 03:50:58;;;;;;;0.00;0.00;;;;;;;;;;1749108;28;20419;-59
2022/04/10 03:51:50;;;;;;;0.20;0.20;;;;;;;;;;1751653;28;20651;-59
2022/04/10 03:52:41;;;;;;;0.17;0.17;;;;;;;;;;1749280;28;20371;-59
2022/04/10 03:53:34;;;;;;;0.08;0.08;;;;;;;;;;1743682;28;20195;-58
2022/04/10 03:54:25;;;;;;;0.10;0.10;;;;;;;;;;1747448;28;20203;-59
2022/04/10 03:55:18;;;;;;;0.10;0.10;;;;;;;;;;1743942;28;20289;-59
2022/04/10 03:56:09;;;;;;;0.10;0.10;;;;;;;;;;1750595;28;20233;-59
2022/04/10 03:57:01;;;;;;;0.20;0.20;;;;;;;;;;1752183;28;20209;-59
2022/04/10 03:57:54;;;;;;;0.10;0.10;;;;;;;;;;1746831;28;20210;-58
2022/04/10 03:58:46;;;;;;;0.10;0.10;;;;;;;;;;1748755;28;20338;-59
2022/04/10 03:59:37;;;;;;;0.10;0.10;;;;;;;;;;1750679;28;20544;-59
2022/04/10 04:00:29;;;;;;;0.20;0.20;;;;;;;;;;1747883;28;20502;-58
2022/04/10 04:01:20;;;;;;;0.10;0.10;;;;;;;;;;1746708;28;20668;-58
2022/04/10 04:02:16;;;;;;;0.10;0.10;;;;;;;;;;1749443;28;20205;-59
2022/04/10 04:03:07;;;;;;;0.15;0.15;;;;;;;;;;1752685;28;20198;-59
2022/04/10 04:03:59;;;;;;;0.10;0.10;;;;;;;;;;1751170;28;20534;-58
2022/04/10 04:04:51;;;;;;;0.10;0.10;;;;;;;;;;1752065;28;20247;-59
2022/04/10 04:05:43;;;;;;;0.10;0.10;;;;;;;;;;1750057;28;20646;-59
2022/04/10 04:06:34;;;;;;;0.00;0.00;;;;;;;;;;1750363;28;20384;-59
2022/04/10 04:07:26;;;;;;;0.00;0.00;;;;;;;;;;1751583;28;20224;-59
2022/04/10 04:08:17;;;;;;;0.00;0.00;;;;;;;;;;1752641;28;20712;-58
2022/04/10 04:09:09;;;;;;;0.10;0.10;;;;;;;;;;1753654;28;20288;-59
2022/04/10 04:10:01;;;;;;;0.10;0.10;;;;;;;;;;1751771;28;20202;-59
2022/04/10 04:10:53;;;;;;;0.15;0.15;;;;;;;;;;1746065;28;20755;-59
2022/04/10 04:11:44;;;;;;;0.10;0.10;;;;;;;;;;1752502;28;20209;-59
2022/04/10 04:12:37;;;;;;;0.15;0.15;;;;;;;;;;1751523;28;20197;-59
2022/04/10 04:13:29;;;;;;;0.00;0.00;;;;;;;;;;1752806;28;20197;-58
2022/04/10 04:14:22;;;;;;;0.00;0.00;;;;;;;;;;1751357;28;20202;-58
2022/04/10 04:15:13;;;;;;;0.00;0.00;;;;;;;;;;1751375;28;20255;-58
2022/04/10 04:16:05;;;;;;;0.10;0.10;;;;;;;;;;1750631;28;20241;-58
2022/04/10 04:16:57;;;;;;;0.10;0.10;;;;;;;;;;1751163;28;20712;-58
2022/04/10 04:17:50;;;;;;;0.20;0.20;;;;;;;;;;1752676;28;20300;-58
2022/04/10 04:18:41;;;;;;;0.00;0.00;;;;;;;;;;1752450;28;20236;-58
2022/04/10 04:19:33;;;;;;;0.20;0.20;;;;;;;;;;1753061;28;20258;-59
2022/04/10 04:20:24;;;;;;;0.20;0.20;;;;;;;;;;1749769;28;20213;-58
2022/04/10 04:21:17;;;;;;;0.10;0.10;;;;;;;;;;1750438;28;20204;-59
2022/04/10 04:22:09;;;;;;;0.05;0.05;;;;;;;;;;1752039;28;20209;-59
2022/04/10 04:23:01;;;;;;;0.00;0.00;;;;;;;;;;1749916;28;20244;-59
2022/04/10 04:23:52;;;;;;;0.00;0.00;;;;;;;;;;1751923;28;20205;-58
2022/04/10 04:24:44;;;;;;;0.20;0.20;;;;;;;;;;1752875;28;20241;-58
2022/04/10 04:25:36;;;;;;;0.00;0.00;;;;;;;;;;1749032;28;20244;-58
2022/04/10 04:26:28;;;;;;;0.20;0.20;;;;;;;;;;1750372;28;20228;-58
2022/04/10 04:27:19;;;;;;;0.10;0.10;;;;;;;;;;1752413;28;20250;-58
2022/04/10 04:28:11;;;;;;;0.10;0.10;;;;;;;;;;1752263;28;20266;-59
2022/04/10 04:29:04;;;;;;;0.10;0.10;;;;;;;;;;1754704;28;20201;-59
2022/04/10 04:29:56;;;;;;;0.05;0.05;;;;;;;;;;1752482;28;20251;-59
2022/04/10 04:30:47;;;;;;;0.00;0.00;;;;;;;;;;1751106;28;20246;-58
2022/04/10 04:31:39;;;;;;;0.00;0.00;;;;;;;;;;1753178;28;20556;-59
2022/04/10 04:32:31;;;;;;;0.10;0.10;;;;;;;;;;1751327;28;20198;-59
2022/04/10 04:33:23;;;;;;;0.00;0.00;;;;;;;;;;1752869;28;20304;-59
2022/04/10 04:34:14;;;;;;;0.10;0.10;;;;;;;;;;1750758;28;20223;-59
2022/04/10 04:35:07;;;;;;;0.10;0.10;;;;;;;;;;1753056;28;20197;-58
2022/04/10 04:35:58;;;;;;;0.10;0.10;;;;;;;;;;1748684;28;20237;-58
2022/04/10 04:36:50;;;;;;;0.10;0.10;;;;;;;;;;1752997;28;20202;-59
2022/04/10 04:37:41;;;;;;;0.10;0.10;;;;;;;;;;1753718;28;20645;-59
2022/04/10 04:38:34;;;;;;;0.10;0.10;;;;;;;;;;1753707;28;20200;-59
2022/04/10 04:39:25;;;;;;;0.10;0.10;;;;;;;;;;1749838;28;20226;-59
2022/04/10 04:40:17;;;;;;;0.10;0.10;;;;;;;;;;1750779;28;20573;-59
2022/04/10 04:41:10;;;;;;;0.20;0.20;;;;;;;;;;1751641;28;20229;-59
2022/04/10 04:42:03;;;;;;;0.10;0.10;;;;;;;;;;1751985;28;20201;-59
2022/04/10 04:42:54;;;;;;;0.10;0.10;;;;;;;;;;1752599;28;20209;-59
2022/04/10 04:43:46;;;;;;;0.25;0.25;;;;;;;;;;1751282;28;20210;-59
2022/04/10 04:44:39;;;;;;;0.10;0.10;;;;;;;;;;1753213;28;20208;-60
2022/04/10 04:45:31;;;;;;;0.08;0.08;;;;;;;;;;1749853;28;20205;-59
2022/04/10 04:46:22;;;;;;;0.10;0.10;;;;;;;;;;1751236;28;20564;-59
2022/04/10 04:47:14;;;;;;;0.00;0.00;;;;;;;;;;1754061;28;20672;-59
2022/04/10 04:48:06;;;;;;;0.10;0.10;;;;;;;;;;1750902;28;20224;-59
2022/04/10 04:48:58;;;;;;;0.10;0.10;;;;;;;;;;1752044;28;20225;-59
2022/04/10 04:49:49;;;;;;;0.20;0.20;;;;;;;;;;1753015;28;20201;-59
2022/04/10 04:50:44;;;;;;;0.30;0.30;;;;;;;;;;1751139;28;20233;-59
2022/04/10 04:51:36;;;;;;;0.10;0.10;;;;;;;;;;1752270;28;20672;-60
2022/04/10 04:52:28;;;;;;;0.00;0.00;;;;;;;;;;1752488;28;20201;-59
2022/04/10 04:53:20;;;;;;;0.13;0.13;;;;;;;;;;1750191;28;20205;-59
2022/04/10 04:54:12;;;;;;;0.10;0.10;;;;;;;;;;1752883;28;20695;-59
2022/04/10 04:55:03;;;;;;;0.20;0.20;;;;;;;;;;1745810;28;20229;-58
2022/04/10 04:55:56;;;;;;;0.00;0.00;;;;;;;;;;1749910;28;20984;-59
2022/04/10 04:56:47;;;;;;;0.05;0.05;;;;;;;;;;1752943;28;20587;-59
2022/04/10 04:57:39;;;;;;;0.30;0.30;;;;;;;;;;1751922;28;20671;-59
2022/04/10 04:58:30;;;;;;;0.10;0.10;;;;;;;;;;1753550;28;20201;-60
2022/04/10 04:59:23;;;;;;;0.10;0.10;;;;;;;;;;1750860;28;20232;-59
2022/04/10 05:00:16;;;;;;;0.20;0.20;;;;;;;;;;1750350;28;20205;-59
2022/04/10 05:01:08;;;;;;;0.10;0.10;;;;;;;;;;1748253;28;20332;-59
2022/04/10 05:02:00;;;;;;;0.10;0.10;;;;;;;;;;1752680;28;20243;-59
2022/04/10 05:02:52;;;;;;;0.20;0.20;;;;;;;;;;1753070;28;20329;-59
2022/04/10 05:03:43;;;;;;;0.10;0.10;;;;;;;;;;1753477;28;20217;-59
2022/04/10 05:04:35;;;;;;;0.22;0.22;;;;;;;;;;1751161;28;20197;-58
2022/04/10 05:05:27;;;;;;;0.10;0.10;;;;;;;;;;1749721;28;20229;-58
2022/04/10 05:06:19;;;;;;;0.05;0.05;;;;;;;;;;1751192;28;20629;-59
2022/04/10 05:07:11;;;;;;;0.05;0.05;;;;;;;;;;1751756;28;20296;-59
2022/04/10 05:08:03;;;;;;;0.10;0.10;;;;;;;;;;1750636;28;20209;-58
2022/04/10 05:08:55;;;;;;;0.25;0.25;;;;;;;;;;1753488;28;20703;-59
2022/04/10 05:09:46;;;;;;;0.10;0.10;;;;;;;;;;1752976;28;20589;-59
2022/04/10 05:10:38;;;;;;;0.10;0.10;;;;;;;;;;1750515;28;20260;-59
2022/04/10 05:11:30;;;;;;;0.13;0.13;;;;;;;;;;1751386;28;20248;-59
2022/04/10 05:12:22;;;;;;;0.20;0.20;;;;;;;;;;1752523;28;20296;-59
2022/04/10 05:13:13;;;;;;;0.10;0.10;;;;;;;;;;1752775;28;20201;-60